sensor_id;sensor_type;location;lat;lon;timestamp;temperature;humidity
6841;DHT22;3458;53.678;14.080;2023-05-23T00:00:41;20.00;59.50
6841;DHT22;3458;53.678;14.080;2023-05-23T00:03:06;19.90;59.50
6841;DHT22;3458;53.678;14.080;2023-05-23T00:05:33;19.90;59.70
6841;DHT22;3458;53.678;14.080;2023-05-23T00:08:00;19.90;59.80
6841;DHT22;3458;53.678;14.080;2023-05-23T00:10:26;19.90;60.00
6841;DHT22;3458;53.678;14.080;2023-05-23T00:12:51;19.80;60.00
6841;DHT22;3458;53.678;14.080;2023-05-23T00:15:17;19.80;60.20
6841;DHT22;3458;53.678;14.080;2023-05-23T00:17:43;19.80;60.10
6841;DHT22;3458;53.678;14.080;2023-05-23T00:20:09;19.80;60.20
6841;DHT22;3458;53.678;14.080;2023-05-23T00:22:36;19.80;60.40
6841;DHT22;3458;53.678;14.080;2023-05-23T00:25:05;19.80;60.40
6841;DHT22;3458;53.678;14.080;2023-05-23T00:27:30;19.70;60.60
6841;DHT22;3458;53.678;14.080;2023-05-23T00:29:56;19.70;60.80
6841;DHT22;3458;53.678;14.080;2023-05-23T00:32:21;19.70;60.90
6841;DHT22;3458;53.678;14.080;2023-05-23T00:34:47;19.70;61.10
6841;DHT22;3458;53.678;14.080;2023-05-23T00:37:13;19.70;61.30
6841;DHT22;3458;53.678;14.080;2023-05-23T00:39:39;19.70;61.30
6841;DHT22;3458;53.678;14.080;2023-05-23T00:42:05;19.70;61.50
6841;DHT22;3458;53.678;14.080;2023-05-23T00:44:30;19.60;61.50
6841;DHT22;3458;53.678;14.080;2023-05-23T00:46:56;19.60;61.70
6841;DHT22;3458;53.678;14.080;2023-05-23T00:49:22;19.60;61.90
6841;DHT22;3458;53.678;14.080;2023-05-23T00:51:49;19.50;62.10
6841;DHT22;3458;53.678;14.080;2023-05-23T00:54:18;19.50;62.10
6841;DHT22;3458;53.678;14.080;2023-05-23T00:56:45;19.50;62.00
6841;DHT22;3458;53.678;14.080;2023-05-23T00:59:11;19.50;61.80
6841;DHT22;3458;53.678;14.080;2023-05-23T01:01:38;19.40;62.00
6841;DHT22;3458;53.678;14.080;2023-05-23T01:04:04;19.40;62.60
6841;DHT22;3458;53.678;14.080;2023-05-23T01:06:31;19.40;62.90
6841;DHT22;3458;53.678;14.080;2023-05-23T01:08:58;19.30;63.10
6841;DHT22;3458;53.678;14.080;2023-05-23T01:11:35;19.30;63.30
6841;DHT22;3458;53.678;14.080;2023-05-23T01:14:10;19.30;63.70
6841;DHT22;3458;53.678;14.080;2023-05-23T01:16:56;19.30;63.70
6841;DHT22;3458;53.678;14.080;2023-05-23T01:19:54;19.30;63.80
6841;DHT22;3458;53.678;14.080;2023-05-23T01:25:38;19.30;63.80
6841;DHT22;3458;53.678;14.080;2023-05-23T01:28:14;19.20;63.40
6841;DHT22;3458;53.678;14.080;2023-05-23T01:30:43;19.20;63.20
6841;DHT22;3458;53.678;14.080;2023-05-23T01:33:10;19.20;62.80
6841;DHT22;3458;53.678;14.080;2023-05-23T01:35:37;19.20;62.70
6841;DHT22;3458;53.678;14.080;2023-05-23T01:38:04;19.10;62.80
6841;DHT22;3458;53.678;14.080;2023-05-23T01:40:29;19.10;62.90
6841;DHT22;3458;53.678;14.080;2023-05-23T01:42:55;19.00;62.90
6841;DHT22;3458;53.678;14.080;2023-05-23T01:45:25;19.00;63.10
6841;DHT22;3458;53.678;14.080;2023-05-23T01:47:53;19.00;63.30
6841;DHT22;3458;53.678;14.080;2023-05-23T01:50:19;19.00;63.50
6841;DHT22;3458;53.678;14.080;2023-05-23T01:52:46;19.00;63.50
6841;DHT22;3458;53.678;14.080;2023-05-23T01:55:13;19.00;63.40
6841;DHT22;3458;53.678;14.080;2023-05-23T01:57:40;19.00;63.60
6841;DHT22;3458;53.678;14.080;2023-05-23T02:00:07;18.90;64.50
6841;DHT22;3458;53.678;14.080;2023-05-23T02:02:35;18.90;63.80
6841;DHT22;3458;53.678;14.080;2023-05-23T02:05:00;18.90;63.90
6841;DHT22;3458;53.678;14.080;2023-05-23T02:07:26;18.90;63.60
6841;DHT22;3458;53.678;14.080;2023-05-23T02:09:52;18.90;63.70
6841;DHT22;3458;53.678;14.080;2023-05-23T02:12:17;18.90;63.70
6841;DHT22;3458;53.678;14.080;2023-05-23T02:14:43;18.90;63.70
6841;DHT22;3458;53.678;14.080;2023-05-23T02:17:08;18.90;63.80
6841;DHT22;3458;53.678;14.080;2023-05-23T02:19:34;18.90;63.80
6841;DHT22;3458;53.678;14.080;2023-05-23T02:22:00;18.90;63.70
6841;DHT22;3458;53.678;14.080;2023-05-23T02:24:26;18.90;63.60
6841;DHT22;3458;53.678;14.080;2023-05-23T02:26:51;18.90;63.50
6841;DHT22;3458;53.678;14.080;2023-05-23T02:29:17;18.80;63.60
6841;DHT22;3458;53.678;14.080;2023-05-23T02:31:43;18.80;64.10
6841;DHT22;3458;53.678;14.080;2023-05-23T02:34:08;18.80;64.20
6841;DHT22;3458;53.678;14.080;2023-05-23T02:36:34;18.80;64.30
6841;DHT22;3458;53.678;14.080;2023-05-23T02:39:02;18.80;64.40
6841;DHT22;3458;53.678;14.080;2023-05-23T02:41:27;18.80;64.50
6841;DHT22;3458;53.678;14.080;2023-05-23T02:43:53;18.80;65.40
6841;DHT22;3458;53.678;14.080;2023-05-23T02:46:19;18.70;64.60
6841;DHT22;3458;53.678;14.080;2023-05-23T02:48:44;18.70;64.70
6841;DHT22;3458;53.678;14.080;2023-05-23T02:51:10;18.70;64.80
6841;DHT22;3458;53.678;14.080;2023-05-23T02:53:37;18.70;64.70
6841;DHT22;3458;53.678;14.080;2023-05-23T02:56:03;18.70;64.80
6841;DHT22;3458;53.678;14.080;2023-05-23T02:58:28;18.70;64.90
6841;DHT22;3458;53.678;14.080;2023-05-23T03:00:54;18.70;65.10
6841;DHT22;3458;53.678;14.080;2023-05-23T03:03:20;18.70;65.40
6841;DHT22;3458;53.678;14.080;2023-05-23T03:05:46;18.70;65.20
6841;DHT22;3458;53.678;14.080;2023-05-23T03:08:11;18.70;65.30
6841;DHT22;3458;53.678;14.080;2023-05-23T03:10:37;18.70;65.20
6841;DHT22;3458;53.678;14.080;2023-05-23T03:13:02;18.70;64.90
6841;DHT22;3458;53.678;14.080;2023-05-23T03:15:28;18.70;64.90
6841;DHT22;3458;53.678;14.080;2023-05-23T03:17:53;18.60;64.50
6841;DHT22;3458;53.678;14.080;2023-05-23T03:20:18;18.60;64.80
6841;DHT22;3458;53.678;14.080;2023-05-23T03:22:44;18.60;64.90
6841;DHT22;3458;53.678;14.080;2023-05-23T03:25:10;18.60;65.00
6841;DHT22;3458;53.678;14.080;2023-05-23T03:27:35;18.60;65.40
6841;DHT22;3458;53.678;14.080;2023-05-23T03:30:02;18.50;65.60
6841;DHT22;3458;53.678;14.080;2023-05-23T03:32:28;18.50;65.80
6841;DHT22;3458;53.678;14.080;2023-05-23T03:34:53;18.50;65.60
6841;DHT22;3458;53.678;14.080;2023-05-23T03:37:19;18.50;65.80
6841;DHT22;3458;53.678;14.080;2023-05-23T03:39:45;18.50;65.70
6841;DHT22;3458;53.678;14.080;2023-05-23T03:42:10;18.50;65.70
6841;DHT22;3458;53.678;14.080;2023-05-23T03:44:36;18.50;65.80
6841;DHT22;3458;53.678;14.080;2023-05-23T03:47:01;18.50;65.80
6841;DHT22;3458;53.678;14.080;2023-05-23T03:49:27;18.50;66.00
6841;DHT22;3458;53.678;14.080;2023-05-23T03:51:52;18.50;66.50
6841;DHT22;3458;53.678;14.080;2023-05-23T03:54:18;18.50;66.80
6841;DHT22;3458;53.678;14.080;2023-05-23T03:56:43;18.50;66.80
6841;DHT22;3458;53.678;14.080;2023-05-23T03:59:09;18.50;66.80
6841;DHT22;3458;53.678;14.080;2023-05-23T04:01:34;18.50;66.50
6841;DHT22;3458;53.678;14.080;2023-05-23T04:04:00;18.60;66.00
6841;DHT22;3458;53.678;14.080;2023-05-23T04:06:25;18.60;65.70
6841;DHT22;3458;53.678;14.080;2023-05-23T04:08:51;18.60;65.60
6841;DHT22;3458;53.678;14.080;2023-05-23T04:11:16;18.60;65.50
6841;DHT22;3458;53.678;14.080;2023-05-23T04:13:42;18.60;65.10
6841;DHT22;3458;53.678;14.080;2023-05-23T04:16:08;18.60;65.70
6841;DHT22;3458;53.678;14.080;2023-05-23T04:18:33;18.70;66.50
6841;DHT22;3458;53.678;14.080;2023-05-23T04:21:00;18.60;67.10
6841;DHT22;3458;53.678;14.080;2023-05-23T04:23:25;18.60;67.60
6841;DHT22;3458;53.678;14.080;2023-05-23T04:25:51;18.60;67.70
6841;DHT22;3458;53.678;14.080;2023-05-23T04:28:16;18.60;68.00
6841;DHT22;3458;53.678;14.080;2023-05-23T04:30:43;18.60;68.30
6841;DHT22;3458;53.678;14.080;2023-05-23T04:33:08;18.60;68.60
6841;DHT22;3458;53.678;14.080;2023-05-23T04:35:34;18.70;68.70
6841;DHT22;3458;53.678;14.080;2023-05-23T04:38:03;18.70;68.20
6841;DHT22;3458;53.678;14.080;2023-05-23T04:40:29;18.60;67.80
6841;DHT22;3458;53.678;14.080;2023-05-23T04:42:55;18.70;67.60
6841;DHT22;3458;53.678;14.080;2023-05-23T04:45:21;18.70;67.70
6841;DHT22;3458;53.678;14.080;2023-05-23T04:47:47;18.70;67.80
6841;DHT22;3458;53.678;14.080;2023-05-23T04:50:12;18.70;67.70
6841;DHT22;3458;53.678;14.080;2023-05-23T04:52:41;18.70;67.70
6841;DHT22;3458;53.678;14.080;2023-05-23T04:55:07;18.70;67.80
6841;DHT22;3458;53.678;14.080;2023-05-23T04:57:33;18.70;67.90
6841;DHT22;3458;53.678;14.080;2023-05-23T04:59:59;18.80;67.80
6841;DHT22;3458;53.678;14.080;2023-05-23T05:02:25;18.80;67.60
6841;DHT22;3458;53.678;14.080;2023-05-23T05:04:51;18.80;67.40
6841;DHT22;3458;53.678;14.080;2023-05-23T05:07:17;18.90;67.50
6841;DHT22;3458;53.678;14.080;2023-05-23T05:09:42;18.90;67.70
6841;DHT22;3458;53.678;14.080;2023-05-23T05:12:08;19.00;67.90
6841;DHT22;3458;53.678;14.080;2023-05-23T05:14:33;19.00;67.20
6841;DHT22;3458;53.678;14.080;2023-05-23T05:16:59;19.00;66.20
6841;DHT22;3458;53.678;14.080;2023-05-23T05:19:26;19.10;65.50
6841;DHT22;3458;53.678;14.080;2023-05-23T05:21:52;19.10;64.60
6841;DHT22;3458;53.678;14.080;2023-05-23T05:24:17;19.10;64.20
6841;DHT22;3458;53.678;14.080;2023-05-23T05:26:45;19.10;64.20
6841;DHT22;3458;53.678;14.080;2023-05-23T05:29:11;19.20;65.00
6841;DHT22;3458;53.678;14.080;2023-05-23T05:31:36;19.20;65.20
6841;DHT22;3458;53.678;14.080;2023-05-23T05:34:01;19.20;64.40
6841;DHT22;3458;53.678;14.080;2023-05-23T05:36:27;19.20;64.00
6841;DHT22;3458;53.678;14.080;2023-05-23T05:38:52;19.20;63.90
6841;DHT22;3458;53.678;14.080;2023-05-23T05:41:18;19.20;63.90
6841;DHT22;3458;53.678;14.080;2023-05-23T05:43:43;19.20;63.70
6841;DHT22;3458;53.678;14.080;2023-05-23T05:46:10;19.20;63.40
6841;DHT22;3458;53.678;14.080;2023-05-23T05:48:35;19.20;63.70
6841;DHT22;3458;53.678;14.080;2023-05-23T05:51:01;19.20;63.60
6841;DHT22;3458;53.678;14.080;2023-05-23T05:53:27;19.30;64.20
6841;DHT22;3458;53.678;14.080;2023-05-23T05:55:53;19.30;64.60
6841;DHT22;3458;53.678;14.080;2023-05-23T05:58:19;19.30;64.50
6841;DHT22;3458;53.678;14.080;2023-05-23T06:00:45;19.30;64.50
6841;DHT22;3458;53.678;14.080;2023-05-23T06:03:10;19.30;64.70
6841;DHT22;3458;53.678;14.080;2023-05-23T06:05:36;19.40;64.60
6841;DHT22;3458;53.678;14.080;2023-05-23T06:08:03;19.40;64.60
6841;DHT22;3458;53.678;14.080;2023-05-23T06:10:29;19.40;65.60
6841;DHT22;3458;53.678;14.080;2023-05-23T06:12:54;19.40;66.80
6841;DHT22;3458;53.678;14.080;2023-05-23T06:15:20;19.40;68.00
6841;DHT22;3458;53.678;14.080;2023-05-23T06:17:45;19.40;69.10
6841;DHT22;3458;53.678;14.080;2023-05-23T06:20:11;19.50;70.40
6841;DHT22;3458;53.678;14.080;2023-05-23T06:22:37;19.40;70.90
6841;DHT22;3458;53.678;14.080;2023-05-23T06:25:04;19.50;71.50
6841;DHT22;3458;53.678;14.080;2023-05-23T06:27:29;19.50;72.20
6841;DHT22;3458;53.678;14.080;2023-05-23T06:29:55;19.50;72.90
6841;DHT22;3458;53.678;14.080;2023-05-23T06:32:20;19.50;72.90
6841;DHT22;3458;53.678;14.080;2023-05-23T06:34:46;19.60;72.80
6841;DHT22;3458;53.678;14.080;2023-05-23T06:37:11;19.60;73.00
6841;DHT22;3458;53.678;14.080;2023-05-23T06:39:37;19.60;73.40
6841;DHT22;3458;53.678;14.080;2023-05-23T06:42:02;19.70;73.70
6841;DHT22;3458;53.678;14.080;2023-05-23T06:44:28;19.70;74.10
6841;DHT22;3458;53.678;14.080;2023-05-23T06:46:54;19.80;74.10
6841;DHT22;3458;53.678;14.080;2023-05-23T06:49:22;19.80;73.40
6841;DHT22;3458;53.678;14.080;2023-05-23T06:51:48;19.80;73.40
6841;DHT22;3458;53.678;14.080;2023-05-23T06:54:13;19.90;71.00
6841;DHT22;3458;53.678;14.080;2023-05-23T06:56:39;19.90;67.00
6841;DHT22;3458;53.678;14.080;2023-05-23T06:59:04;19.90;65.50
6841;DHT22;3458;53.678;14.080;2023-05-23T07:01:30;19.90;64.40
6841;DHT22;3458;53.678;14.080;2023-05-23T07:03:55;19.90;64.20
6841;DHT22;3458;53.678;14.080;2023-05-23T07:06:21;19.90;64.10
6841;DHT22;3458;53.678;14.080;2023-05-23T07:08:46;20.00;63.80
6841;DHT22;3458;53.678;14.080;2023-05-23T07:11:12;20.00;64.00
6841;DHT22;3458;53.678;14.080;2023-05-23T07:13:37;20.00;63.80
6841;DHT22;3458;53.678;14.080;2023-05-23T07:16:03;20.00;63.40
6841;DHT22;3458;53.678;14.080;2023-05-23T07:18:28;20.00;62.60
6841;DHT22;3458;53.678;14.080;2023-05-23T07:20:54;20.00;61.90
6841;DHT22;3458;53.678;14.080;2023-05-23T07:23:24;20.00;61.80
6841;DHT22;3458;53.678;14.080;2023-05-23T07:25:49;20.00;61.80
6841;DHT22;3458;53.678;14.080;2023-05-23T07:28:15;20.00;62.20
6841;DHT22;3458;53.678;14.080;2023-05-23T07:30:41;20.00;62.20
6841;DHT22;3458;53.678;14.080;2023-05-23T07:33:07;20.10;62.30
6841;DHT22;3458;53.678;14.080;2023-05-23T07:35:32;20.00;62.50
6841;DHT22;3458;53.678;14.080;2023-05-23T07:37:58;20.00;62.70
6841;DHT22;3458;53.678;14.080;2023-05-23T07:40:23;20.00;62.60
6841;DHT22;3458;53.678;14.080;2023-05-23T07:42:49;20.00;62.90
6841;DHT22;3458;53.678;14.080;2023-05-23T07:45:14;20.00;63.30
6841;DHT22;3458;53.678;14.080;2023-05-23T07:47:40;20.00;63.30
6841;DHT22;3458;53.678;14.080;2023-05-23T07:50:06;20.00;63.30
6841;DHT22;3458;53.678;14.080;2023-05-23T07:52:32;20.00;63.60
6841;DHT22;3458;53.678;14.080;2023-05-23T07:54:58;20.00;63.50
6841;DHT22;3458;53.678;14.080;2023-05-23T07:57:24;20.00;63.70
6841;DHT22;3458;53.678;14.080;2023-05-23T07:59:52;20.00;64.30
6841;DHT22;3458;53.678;14.080;2023-05-23T08:02:18;20.00;64.20
6841;DHT22;3458;53.678;14.080;2023-05-23T08:04:44;20.10;64.70
6841;DHT22;3458;53.678;14.080;2023-05-23T08:07:10;20.00;64.30
6841;DHT22;3458;53.678;14.080;2023-05-23T08:09:36;20.00;64.80
6841;DHT22;3458;53.678;14.080;2023-05-23T08:12:02;20.00;64.40
6841;DHT22;3458;53.678;14.080;2023-05-23T08:14:27;20.00;64.40
6841;DHT22;3458;53.678;14.080;2023-05-23T08:16:53;20.00;64.70
6841;DHT22;3458;53.678;14.080;2023-05-23T08:19:18;20.00;65.70
6841;DHT22;3458;53.678;14.080;2023-05-23T08:21:44;20.00;65.20
6841;DHT22;3458;53.678;14.080;2023-05-23T08:24:10;20.00;69.60
6841;DHT22;3458;53.678;14.080;2023-05-23T08:26:37;20.00;70.70
6841;DHT22;3458;53.678;14.080;2023-05-23T08:29:03;20.00;70.80
6841;DHT22;3458;53.678;14.080;2023-05-23T08:31:29;20.00;71.90
6841;DHT22;3458;53.678;14.080;2023-05-23T08:33:55;20.00;76.10
6841;DHT22;3458;53.678;14.080;2023-05-23T08:36:21;20.00;78.20
6841;DHT22;3458;53.678;14.080;2023-05-23T08:38:46;20.00;79.40
6841;DHT22;3458;53.678;14.080;2023-05-23T08:41:18;20.00;80.00
6841;DHT22;3458;53.678;14.080;2023-05-23T08:43:44;20.00;80.30
6841;DHT22;3458;53.678;14.080;2023-05-23T08:46:11;20.00;80.70
6841;DHT22;3458;53.678;14.080;2023-05-23T08:48:37;20.00;78.40
6841;DHT22;3458;53.678;14.080;2023-05-23T08:51:04;20.00;80.20
6841;DHT22;3458;53.678;14.080;2023-05-23T08:53:30;19.90;81.80
6841;DHT22;3458;53.678;14.080;2023-05-23T08:56:00;20.00;83.30
6841;DHT22;3458;53.678;14.080;2023-05-23T08:58:30;20.00;85.30
6841;DHT22;3458;53.678;14.080;2023-05-23T09:00:56;20.00;87.20
6841;DHT22;3458;53.678;14.080;2023-05-23T09:03:25;20.00;89.00
6841;DHT22;3458;53.678;14.080;2023-05-23T09:05:52;20.00;90.70
6841;DHT22;3458;53.678;14.080;2023-05-23T09:08:19;20.00;90.70
6841;DHT22;3458;53.678;14.080;2023-05-23T09:10:44;20.00;90.70
6841;DHT22;3458;53.678;14.080;2023-05-23T09:13:10;20.00;90.60
6841;DHT22;3458;53.678;14.080;2023-05-23T09:15:35;20.00;90.50
6841;DHT22;3458;53.678;14.080;2023-05-23T09:18:01;20.00;88.90
6841;DHT22;3458;53.678;14.080;2023-05-23T09:20:27;20.00;86.40
6841;DHT22;3458;53.678;14.080;2023-05-23T09:22:54;19.90;85.60
6841;DHT22;3458;53.678;14.080;2023-05-23T09:25:19;19.90;85.60
6841;DHT22;3458;53.678;14.080;2023-05-23T09:27:45;20.00;88.10
6841;DHT22;3458;53.678;14.080;2023-05-23T09:30:12;20.00;90.00
6841;DHT22;3458;53.678;14.080;2023-05-23T09:32:38;20.10;91.10
6841;DHT22;3458;53.678;14.080;2023-05-23T09:35:05;20.10;90.10
6841;DHT22;3458;53.678;14.080;2023-05-23T09:37:44;20.10;90.10
6841;DHT22;3458;53.678;14.080;2023-05-23T09:40:13;20.20;89.70
6841;DHT22;3458;53.678;14.080;2023-05-23T09:42:44;20.20;90.10
6841;DHT22;3458;53.678;14.080;2023-05-23T09:45:11;20.30;90.50
6841;DHT22;3458;53.678;14.080;2023-05-23T09:47:37;20.40;90.50
6841;DHT22;3458;53.678;14.080;2023-05-23T09:50:04;20.50;89.70
6841;DHT22;3458;53.678;14.080;2023-05-23T09:52:36;20.50;85.10
6841;DHT22;3458;53.678;14.080;2023-05-23T09:55:05;20.60;83.60
6841;DHT22;3458;53.678;14.080;2023-05-23T09:57:34;20.70;83.40
6841;DHT22;3458;53.678;14.080;2023-05-23T10:00:00;20.90;85.60
6841;DHT22;3458;53.678;14.080;2023-05-23T10:02:57;20.90;85.30
6841;DHT22;3458;53.678;14.080;2023-05-23T10:05:48;21.10;84.40
6841;DHT22;3458;53.678;14.080;2023-05-23T10:08:17;21.00;80.60
6841;DHT22;3458;53.678;14.080;2023-05-23T10:11:00;21.10;79.60
6841;DHT22;3458;53.678;14.080;2023-05-23T10:13:34;21.10;78.40
6841;DHT22;3458;53.678;14.080;2023-05-23T10:16:08;21.10;79.00
6841;DHT22;3458;53.678;14.080;2023-05-23T10:18:42;21.10;80.00
6841;DHT22;3458;53.678;14.080;2023-05-23T10:21:11;21.10;80.70
6841;DHT22;3458;53.678;14.080;2023-05-23T10:23:37;21.10;80.70
6841;DHT22;3458;53.678;14.080;2023-05-23T10:26:04;21.10;83.60
6841;DHT22;3458;53.678;14.080;2023-05-23T10:28:30;21.10;83.10
6841;DHT22;3458;53.678;14.080;2023-05-23T10:30:56;21.00;82.80
6841;DHT22;3458;53.678;14.080;2023-05-23T10:33:25;21.10;83.60
6841;DHT22;3458;53.678;14.080;2023-05-23T10:36:15;21.10;83.30
6841;DHT22;3458;53.678;14.080;2023-05-23T10:38:50;21.00;78.70
6841;DHT22;3458;53.678;14.080;2023-05-23T10:41:33;21.10;77.80
6841;DHT22;3458;53.678;14.080;2023-05-23T10:44:09;21.10;79.40
6841;DHT22;3458;53.678;14.080;2023-05-23T10:46:50;21.20;79.40
6841;DHT22;3458;53.678;14.080;2023-05-23T10:49:20;21.30;78.10
6841;DHT22;3458;53.678;14.080;2023-05-23T10:51:50;21.30;77.60
6841;DHT22;3458;53.678;14.080;2023-05-23T10:54:17;21.40;77.80
6841;DHT22;3458;53.678;14.080;2023-05-23T10:56:44;21.50;77.60
6841;DHT22;3458;53.678;14.080;2023-05-23T10:59:19;21.60;77.60
6841;DHT22;3458;53.678;14.080;2023-05-23T11:01:46;21.70;77.20
6841;DHT22;3458;53.678;14.080;2023-05-23T11:04:14;21.70;76.40
6841;DHT22;3458;53.678;14.080;2023-05-23T11:06:43;21.80;75.20
6841;DHT22;3458;53.678;14.080;2023-05-23T11:09:10;21.90;74.90
6841;DHT22;3458;53.678;14.080;2023-05-23T11:11:59;22.00;74.50
6841;DHT22;3458;53.678;14.080;2023-05-23T11:16:58;22.60;76.50
6841;DHT22;3458;53.678;14.080;2023-05-23T11:19:26;22.80;73.90
6841;DHT22;3458;53.678;14.080;2023-05-23T11:22:00;22.90;72.00
6841;DHT22;3458;53.678;14.080;2023-05-23T11:24:48;23.00;71.60
6841;DHT22;3458;53.678;14.080;2023-05-23T11:27:15;23.20;71.40
6841;DHT22;3458;53.678;14.080;2023-05-23T11:29:41;23.30;72.10
6841;DHT22;3458;53.678;14.080;2023-05-23T11:32:10;23.50;71.00
6841;DHT22;3458;53.678;14.080;2023-05-23T11:34:40;23.70;69.80
6841;DHT22;3458;53.678;14.080;2023-05-23T11:37:05;23.90;65.00
6841;DHT22;3458;53.678;14.080;2023-05-23T11:39:31;24.00;64.30
6841;DHT22;3458;53.678;14.080;2023-05-23T11:42:03;23.90;63.70
6841;DHT22;3458;53.678;14.080;2023-05-23T11:44:29;23.80;61.70
6841;DHT22;3458;53.678;14.080;2023-05-23T11:47:02;23.80;62.70
6841;DHT22;3458;53.678;14.080;2023-05-23T11:49:29;23.90;60.70
6841;DHT22;3458;53.678;14.080;2023-05-23T11:51:56;24.00;60.70
6841;DHT22;3458;53.678;14.080;2023-05-23T11:54:23;23.90;60.00
6841;DHT22;3458;53.678;14.080;2023-05-23T11:56:49;23.90;59.40
6841;DHT22;3458;53.678;14.080;2023-05-23T11:59:15;24.00;58.50
6841;DHT22;3458;53.678;14.080;2023-05-23T12:01:40;24.20;57.90
6841;DHT22;3458;53.678;14.080;2023-05-23T12:04:10;24.60;58.00
6841;DHT22;3458;53.678;14.080;2023-05-23T12:06:39;25.60;58.00
6841;DHT22;3458;53.678;14.080;2023-05-23T12:09:10;26.90;55.00
6841;DHT22;3458;53.678;14.080;2023-05-23T12:11:38;26.80;52.60
6841;DHT22;3458;53.678;14.080;2023-05-23T12:14:04;26.30;53.60
6841;DHT22;3458;53.678;14.080;2023-05-23T12:16:31;25.90;53.60
6841;DHT22;3458;53.678;14.080;2023-05-23T12:18:57;25.80;53.50
6841;DHT22;3458;53.678;14.080;2023-05-23T12:21:25;26.20;54.50
6841;DHT22;3458;53.678;14.080;2023-05-23T12:23:51;26.80;53.30
6841;DHT22;3458;53.678;14.080;2023-05-23T12:26:16;26.70;52.80
6841;DHT22;3458;53.678;14.080;2023-05-23T12:28:44;26.60;51.80
6841;DHT22;3458;53.678;14.080;2023-05-23T12:31:21;26.70;52.30
6841;DHT22;3458;53.678;14.080;2023-05-23T12:33:48;26.40;51.40
6841;DHT22;3458;53.678;14.080;2023-05-23T12:36:20;26.00;53.30
6841;DHT22;3458;53.678;14.080;2023-05-23T12:38:47;25.70;52.80
6841;DHT22;3458;53.678;14.080;2023-05-23T12:41:16;25.40;52.90
6841;DHT22;3458;53.678;14.080;2023-05-23T12:43:55;25.10;52.60
6841;DHT22;3458;53.678;14.080;2023-05-23T12:46:22;24.90;53.40
6841;DHT22;3458;53.678;14.080;2023-05-23T12:48:47;24.70;54.80
6841;DHT22;3458;53.678;14.080;2023-05-23T12:51:14;24.60;55.30
6841;DHT22;3458;53.678;14.080;2023-05-23T12:53:39;24.50;54.80
6841;DHT22;3458;53.678;14.080;2023-05-23T12:56:05;24.30;54.50
6841;DHT22;3458;53.678;14.080;2023-05-23T12:58:31;24.20;54.70
6841;DHT22;3458;53.678;14.080;2023-05-23T13:00:57;24.00;54.90
6841;DHT22;3458;53.678;14.080;2023-05-23T13:03:23;23.80;58.40
6841;DHT22;3458;53.678;14.080;2023-05-23T13:05:49;23.70;59.70
6841;DHT22;3458;53.678;14.080;2023-05-23T13:08:15;23.60;60.50
6841;DHT22;3458;53.678;14.080;2023-05-23T13:10:41;23.40;60.10
6841;DHT22;3458;53.678;14.080;2023-05-23T13:13:06;23.30;60.90
6841;DHT22;3458;53.678;14.080;2023-05-23T13:15:32;23.20;62.20
6841;DHT22;3458;53.678;14.080;2023-05-23T13:17:58;23.30;62.60
6841;DHT22;3458;53.678;14.080;2023-05-23T13:20:24;23.20;62.40
6841;DHT22;3458;53.678;14.080;2023-05-23T13:22:54;23.10;62.60
6841;DHT22;3458;53.678;14.080;2023-05-23T13:25:20;23.00;63.10
6841;DHT22;3458;53.678;14.080;2023-05-23T13:27:46;23.00;63.50
6841;DHT22;3458;53.678;14.080;2023-05-23T13:30:12;22.90;63.70
6841;DHT22;3458;53.678;14.080;2023-05-23T13:32:37;23.00;64.70
6841;DHT22;3458;53.678;14.080;2023-05-23T13:35:03;22.90;65.00
6841;DHT22;3458;53.678;14.080;2023-05-23T13:37:29;22.90;65.30
6841;DHT22;3458;53.678;14.080;2023-05-23T13:39:54;22.80;65.50
6841;DHT22;3458;53.678;14.080;2023-05-23T13:42:20;22.80;65.30
6841;DHT22;3458;53.678;14.080;2023-05-23T13:44:45;22.80;65.70
6841;DHT22;3458;53.678;14.080;2023-05-23T13:47:12;22.80;64.90
6841;DHT22;3458;53.678;14.080;2023-05-23T13:49:38;22.70;64.20
6841;DHT22;3458;53.678;14.080;2023-05-23T13:52:03;22.60;63.80
6841;DHT22;3458;53.678;14.080;2023-05-23T13:54:29;22.60;64.20
6841;DHT22;3458;53.678;14.080;2023-05-23T13:56:54;22.60;64.50
6841;DHT22;3458;53.678;14.080;2023-05-23T13:59:20;22.60;65.00
6841;DHT22;3458;53.678;14.080;2023-05-23T14:01:48;22.60;64.30
6841;DHT22;3458;53.678;14.080;2023-05-23T14:04:14;22.60;64.10
6841;DHT22;3458;53.678;14.080;2023-05-23T14:06:40;22.70;64.20
6841;DHT22;3458;53.678;14.080;2023-05-23T14:09:05;22.80;64.50
6841;DHT22;3458;53.678;14.080;2023-05-23T14:11:31;22.80;64.10
6841;DHT22;3458;53.678;14.080;2023-05-23T14:13:57;22.90;64.40
6841;DHT22;3458;53.678;14.080;2023-05-23T14:16:23;22.90;64.20
6841;DHT22;3458;53.678;14.080;2023-05-23T14:18:48;23.00;64.40
6841;DHT22;3458;53.678;14.080;2023-05-23T14:21:14;23.20;63.50
6841;DHT22;3458;53.678;14.080;2023-05-23T14:23:40;23.50;62.80
6841;DHT22;3458;53.678;14.080;2023-05-23T14:26:05;23.60;61.60
6841;DHT22;3458;53.678;14.080;2023-05-23T14:28:31;23.50;60.90
6841;DHT22;3458;53.678;14.080;2023-05-23T14:30:57;23.30;61.10
6841;DHT22;3458;53.678;14.080;2023-05-23T14:33:25;23.10;61.90
6841;DHT22;3458;53.678;14.080;2023-05-23T14:35:51;22.90;62.30
6841;DHT22;3458;53.678;14.080;2023-05-23T14:38:17;22.70;62.60
6841;DHT22;3458;53.678;14.080;2023-05-23T14:40:43;22.60;63.40
6841;DHT22;3458;53.678;14.080;2023-05-23T14:43:08;22.50;63.90
6841;DHT22;3458;53.678;14.080;2023-05-23T14:45:34;22.40;64.80
6841;DHT22;3458;53.678;14.080;2023-05-23T14:48:00;22.30;65.40
6841;DHT22;3458;53.678;14.080;2023-05-23T14:50:25;22.20;66.20
6841;DHT22;3458;53.678;14.080;2023-05-23T14:52:51;22.10;66.20
6841;DHT22;3458;53.678;14.080;2023-05-23T14:55:17;22.10;67.10
6841;DHT22;3458;53.678;14.080;2023-05-23T14:57:42;22.00;66.50
6841;DHT22;3458;53.678;14.080;2023-05-23T15:00:09;21.90;66.50
6841;DHT22;3458;53.678;14.080;2023-05-23T15:02:36;21.90;67.00
6841;DHT22;3458;53.678;14.080;2023-05-23T15:05:02;21.90;68.20
6841;DHT22;3458;53.678;14.080;2023-05-23T15:07:29;21.80;69.00
6841;DHT22;3458;53.678;14.080;2023-05-23T15:09:54;21.80;69.40
6841;DHT22;3458;53.678;14.080;2023-05-23T15:12:20;21.70;69.90
6841;DHT22;3458;53.678;14.080;2023-05-23T15:14:45;21.60;69.60
6841;DHT22;3458;53.678;14.080;2023-05-23T15:17:11;21.40;74.10
6841;DHT22;3458;53.678;14.080;2023-05-23T15:19:38;21.00;77.30
6841;DHT22;3458;53.678;14.080;2023-05-23T15:22:07;20.70;79.50
6841;DHT22;3458;53.678;14.080;2023-05-23T15:24:32;20.40;81.50
6841;DHT22;3458;53.678;14.080;2023-05-23T15:26:58;20.10;83.70
6841;DHT22;3458;53.678;14.080;2023-05-23T15:29:24;20.00;85.90
6841;DHT22;3458;53.678;14.080;2023-05-23T15:31:51;19.70;89.00
6841;DHT22;3458;53.678;14.080;2023-05-23T15:34:16;19.70;91.40
6841;DHT22;3458;53.678;14.080;2023-05-23T15:36:42;19.50;93.70
6841;DHT22;3458;53.678;14.080;2023-05-23T15:39:09;19.40;96.00
6841;DHT22;3458;53.678;14.080;2023-05-23T15:41:34;19.40;97.10
6841;DHT22;3458;53.678;14.080;2023-05-23T15:44:00;19.30;98.10
6841;DHT22;3458;53.678;14.080;2023-05-23T15:46:25;18.90;99.50
6841;DHT22;3458;53.678;14.080;2023-05-23T15:48:51;18.70;99.90